sensor_id;sensor_type;location;lat;lon;timestamp;pressure;altitude;pressure_sealevel;temperature;humidity
12594;BME280;6362;50.208;9.182;2023-02-11T00:01:08;101835.84;;;0.36;77.74
12594;BME280;6362;50.208;9.182;2023-02-11T00:03:34;101840.97;;;0.36;78.33
12594;BME280;6362;50.208;9.182;2023-02-11T00:06:01;101845.22;;;0.36;78.12
12594;BME280;6362;50.208;9.182;2023-02-11T00:08:27;101850.34;;;0.36;78.10
12594;BME280;6362;50.208;9.182;2023-02-11T00:10:54;101846.00;;;0.35;78.39
12594;BME280;6362;50.208;9.182;2023-02-11T00:13:19;101845.38;;;0.39;79.16
12594;BME280;6362;50.208;9.182;2023-02-11T00:15:45;101841.38;;;0.42;78.67
12594;BME280;6362;50.208;9.182;2023-02-11T00:18:10;101845.81;;;0.45;79.11
12594;BME280;6362;50.208;9.182;2023-02-11T00:20:38;101845.41;;;0.52;78.80
12594;BME280;6362;50.208;9.182;2023-02-11T00:23:03;101849.22;;;0.59;78.80
12594;BME280;6362;50.208;9.182;2023-02-11T00:25:28;101846.09;;;0.63;78.48
12594;BME280;6362;50.208;9.182;2023-02-11T00:27:54;101842.94;;;0.67;78.63
12594;BME280;6362;50.208;9.182;2023-02-11T00:30:19;101842.22;;;0.69;78.30
12594;BME280;6362;50.208;9.182;2023-02-11T00:32:45;101842.53;;;0.74;78.03
12594;BME280;6362;50.208;9.182;2023-02-11T00:35:10;101849.41;;;0.75;78.31
12594;BME280;6362;50.208;9.182;2023-02-11T00:37:35;101843.06;;;0.83;77.86
12594;BME280;6362;50.208;9.182;2023-02-11T00:40:03;101837.94;;;0.83;78.32
12594;BME280;6362;50.208;9.182;2023-02-11T00:42:28;101840.72;;;0.86;77.85
12594;BME280;6362;50.208;9.182;2023-02-11T00:44:54;101833.25;;;0.89;78.19
12594;BME280;6362;50.208;9.182;2023-02-11T00:47:19;101815.34;;;1.04;77.40
12594;BME280;6362;50.208;9.182;2023-02-11T00:49:44;101822.81;;;1.14;76.64
12594;BME280;6362;50.208;9.182;2023-02-11T00:52:10;101819.97;;;1.10;76.73
12594;BME280;6362;50.208;9.182;2023-02-11T00:54:35;101825.78;;;1.07;77.04
12594;BME280;6362;50.208;9.182;2023-02-11T00:57:01;101819.66;;;1.05;77.35
12594;BME280;6362;50.208;9.182;2023-02-11T00:59:26;101819.78;;;1.07;76.94
12594;BME280;6362;50.208;9.182;2023-02-11T01:01:52;101815.47;;;1.05;77.24
12594;BME280;6362;50.208;9.182;2023-02-11T01:04:17;101816.34;;;1.06;77.48
12594;BME280;6362;50.208;9.182;2023-02-11T01:06:43;101809.44;;;1.05;77.43
12594;BME280;6362;50.208;9.182;2023-02-11T01:09:08;101811.09;;;1.04;77.50
12594;BME280;6362;50.208;9.182;2023-02-11T01:11:34;101801.84;;;1.07;77.80
12594;BME280;6362;50.208;9.182;2023-02-11T01:13:59;101801.06;;;1.08;77.78
12594;BME280;6362;50.208;9.182;2023-02-11T01:16:25;101805.31;;;1.07;77.48
12594;BME280;6362;50.208;9.182;2023-02-11T01:18:50;101799.28;;;1.07;77.85
12594;BME280;6362;50.208;9.182;2023-02-11T01:21:16;101796.91;;;1.10;77.85
12594;BME280;6362;50.208;9.182;2023-02-11T01:23:42;101786.66;;;1.10;77.76
12594;BME280;6362;50.208;9.182;2023-02-11T01:26:07;101788.53;;;1.12;77.46
12594;BME280;6362;50.208;9.182;2023-02-11T01:28:32;101781.66;;;1.11;78.07
12594;BME280;6362;50.208;9.182;2023-02-11T01:31:00;101781.53;;;1.10;77.53
12594;BME280;6362;50.208;9.182;2023-02-11T01:33:25;101777.19;;;1.09;78.07
12594;BME280;6362;50.208;9.182;2023-02-11T01:35:51;101788.34;;;1.09;78.06
12594;BME280;6362;50.208;9.182;2023-02-11T01:38:24;101781.34;;;1.07;77.94
12594;BME280;6362;50.208;9.182;2023-02-11T01:40:53;101775.34;;;1.06;78.47
12594;BME280;6362;50.208;9.182;2023-02-11T01:43:19;101778.00;;;1.08;78.02
12594;BME280;6362;50.208;9.182;2023-02-11T01:48:37;101778.00;;;1.08;78.25
12594;BME280;6362;50.208;9.182;2023-02-11T01:51:10;101761.66;;;1.05;78.37
12594;BME280;6362;50.208;9.182;2023-02-11T01:53:37;101758.97;;;1.04;78.58
12594;BME280;6362;50.208;9.182;2023-02-11T01:56:24;101756.41;;;1.04;78.68
12594;BME280;6362;50.208;9.182;2023-02-11T01:59:14;101756.13;;;0.99;78.43
12594;BME280;6362;50.208;9.182;2023-02-11T02:01:44;101741.56;;;0.98;78.55
12594;BME280;6362;50.208;9.182;2023-02-11T02:04:12;101742.38;;;0.97;78.94
12594;BME280;6362;50.208;9.182;2023-02-11T02:06:50;101746.59;;;0.97;79.14
12594;BME280;6362;50.208;9.182;2023-02-11T02:09:21;101737.03;;;0.94;78.91
12594;BME280;6362;50.208;9.182;2023-02-11T02:11:49;101732.63;;;0.92;78.63
12594;BME280;6362;50.208;9.182;2023-02-11T02:14:14;101729.88;;;0.89;79.06
12594;BME280;6362;50.208;9.182;2023-02-11T02:16:39;101728.22;;;0.89;79.40
12594;BME280;6362;50.208;9.182;2023-02-11T02:22:37;101711.78;;;0.86;79.27
12594;BME280;6362;50.208;9.182;2023-02-11T02:33:48;101735.44;;;0.82;79.62
12594;BME280;6362;50.208;9.182;2023-02-11T02:41:27;101737.31;;;0.84;79.96
12594;BME280;6362;50.208;9.182;2023-02-11T02:43:54;101737.41;;;0.86;79.93
12594;BME280;6362;50.208;9.182;2023-02-11T02:46:22;101734.75;;;0.84;79.57
12594;BME280;6362;50.208;9.182;2023-02-11T02:48:49;101732.19;;;0.84;79.76
12594;BME280;6362;50.208;9.182;2023-02-11T02:53:59;101732.34;;;0.87;80.14
12594;BME280;6362;50.208;9.182;2023-02-11T02:57:08;101730.69;;;0.88;80.21
12594;BME280;6362;50.208;9.182;2023-02-11T03:08:06;101742.69;;;0.89;80.22
12594;BME280;6362;50.208;9.182;2023-02-11T03:10:49;101742.88;;;0.92;79.51
12594;BME280;6362;50.208;9.182;2023-02-11T03:13:17;101737.56;;;0.89;79.79
12594;BME280;6362;50.208;9.182;2023-02-11T03:15:55;101730.78;;;0.89;80.29
12594;BME280;6362;50.208;9.182;2023-02-11T03:18:25;101730.00;;;0.90;80.17
12594;BME280;6362;50.208;9.182;2023-02-11T03:20:53;101729.28;;;0.93;79.69
12594;BME280;6362;50.208;9.182;2023-02-11T03:23:32;101731.84;;;0.93;79.44
12594;BME280;6362;50.208;9.182;2023-02-11T03:26:10;101723.47;;;0.95;79.57
12594;BME280;6362;50.208;9.182;2023-02-11T03:29:00;101711.63;;;0.97;79.36
12594;BME280;6362;50.208;9.182;2023-02-11T03:34:15;101696.34;;;0.99;79.06
12594;BME280;6362;50.208;9.182;2023-02-11T03:39:47;101672.13;;;0.94;79.30
12594;BME280;6362;50.208;9.182;2023-02-11T03:42:16;101658.88;;;0.86;79.70
12594;BME280;6362;50.208;9.182;2023-02-11T03:44:48;101668.94;;;0.83;79.60
12594;BME280;6362;50.208;9.182;2023-02-11T03:47:19;101664.31;;;0.77;79.78
12594;BME280;6362;50.208;9.182;2023-02-11T03:49:46;101661.31;;;0.70;79.25
12594;BME280;6362;50.208;9.182;2023-02-11T03:52:14;101661.84;;;0.64;79.80
12594;BME280;6362;50.208;9.182;2023-02-11T03:54:42;101664.13;;;0.60;79.58
12594;BME280;6362;50.208;9.182;2023-02-11T03:57:10;101653.44;;;0.52;80.40
12594;BME280;6362;50.208;9.182;2023-02-11T04:00:09;101659.94;;;0.47;80.55
12594;BME280;6362;50.208;9.182;2023-02-11T04:02:35;101663.97;;;0.43;80.39
12594;BME280;6362;50.208;9.182;2023-02-11T04:05:03;101667.34;;;0.42;80.90
12594;BME280;6362;50.208;9.182;2023-02-11T04:07:29;101664.69;;;0.41;81.28
12594;BME280;6362;50.208;9.182;2023-02-11T04:09:54;101668.03;;;0.40;81.32
12594;BME280;6362;50.208;9.182;2023-02-11T04:12:20;101670.78;;;0.43;81.39
12594;BME280;6362;50.208;9.182;2023-02-11T04:14:45;101665.34;;;0.51;81.25
12594;BME280;6362;50.208;9.182;2023-02-11T04:17:11;101669.66;;;0.52;81.05
12594;BME280;6362;50.208;9.182;2023-02-11T04:19:37;101675.88;;;0.56;81.66
12594;BME280;6362;50.208;9.182;2023-02-11T04:22:03;101676.03;;;0.59;80.97
12594;BME280;6362;50.208;9.182;2023-02-11T04:24:28;101678.78;;;0.62;80.96
12594;BME280;6362;50.208;9.182;2023-02-11T04:26:54;101678.88;;;0.64;81.63
12594;BME280;6362;50.208;9.182;2023-02-11T04:29:19;101672.28;;;0.67;81.16
12594;BME280;6362;50.208;9.182;2023-02-11T04:31:45;101676.00;;;0.72;81.23
12594;BME280;6362;50.208;9.182;2023-02-11T04:34:10;101668.69;;;0.78;80.95
12594;BME280;6362;50.208;9.182;2023-02-11T04:36:36;101678.13;;;0.79;81.14
12594;BME280;6362;50.208;9.182;2023-02-11T04:39:02;101684.28;;;0.83;81.06
12594;BME280;6362;50.208;9.182;2023-02-11T04:41:27;101671.69;;;0.86;81.26
12594;BME280;6362;50.208;9.182;2023-02-11T04:43:53;101666.75;;;0.89;81.28
12594;BME280;6362;50.208;9.182;2023-02-11T04:46:18;101665.59;;;0.99;80.77
12594;BME280;6362;50.208;9.182;2023-02-11T04:48:43;101669.44;;;1.05;80.08
12594;BME280;6362;50.208;9.182;2023-02-11T04:51:09;101671.28;;;1.08;80.24
12594;BME280;6362;50.208;9.182;2023-02-11T04:53:34;101668.72;;;1.08;80.00
12594;BME280;6362;50.208;9.182;2023-02-11T04:56:00;101668.00;;;1.11;80.25
12594;BME280;6362;50.208;9.182;2023-02-11T04:58:25;101661.31;;;1.13;80.12
12594;BME280;6362;50.208;9.182;2023-02-11T05:00:51;101650.25;;;1.14;80.56
12594;BME280;6362;50.208;9.182;2023-02-11T05:03:16;101646.97;;;1.16;79.93
12594;BME280;6362;50.208;9.182;2023-02-11T05:05:42;101636.84;;;1.18;80.17
12594;BME280;6362;50.208;9.182;2023-02-11T05:08:09;101644.59;;;1.19;80.39
12594;BME280;6362;50.208;9.182;2023-02-11T05:10:35;101653.25;;;1.21;79.68
12594;BME280;6362;50.208;9.182;2023-02-11T05:13:00;101661.13;;;1.24;79.72
12594;BME280;6362;50.208;9.182;2023-02-11T05:15:26;101661.94;;;1.23;79.53
12594;BME280;6362;50.208;9.182;2023-02-11T05:17:52;101665.28;;;1.22;79.81
12594;BME280;6362;50.208;9.182;2023-02-11T05:20:18;101667.13;;;1.25;79.68
12594;BME280;6362;50.208;9.182;2023-02-11T05:22:43;101671.28;;;1.23;79.57
12594;BME280;6362;50.208;9.182;2023-02-11T05:25:09;101670.31;;;1.21;79.63
12594;BME280;6362;50.208;9.182;2023-02-11T05:27:34;101665.97;;;1.20;79.65
12594;BME280;6362;50.208;9.182;2023-02-11T05:29:59;101668.47;;;1.18;79.78
12594;BME280;6362;50.208;9.182;2023-02-11T05:32:25;101673.75;;;1.21;79.86
12594;BME280;6362;50.208;9.182;2023-02-11T05:34:50;101661.72;;;1.20;79.77
12594;BME280;6362;50.208;9.182;2023-02-11T05:37:16;101655.81;;;1.21;79.76
12594;BME280;6362;50.208;9.182;2023-02-11T05:39:41;101655.81;;;1.21;79.39
12594;BME280;6362;50.208;9.182;2023-02-11T05:42:07;101654.13;;;1.22;79.64
12594;BME280;6362;50.208;9.182;2023-02-11T05:44:32;101660.16;;;1.22;79.52
12594;BME280;6362;50.208;9.182;2023-02-11T05:46:58;101651.47;;;1.20;79.59
12594;BME280;6362;50.208;9.182;2023-02-11T05:49:23;101652.09;;;1.16;79.20
12594;BME280;6362;50.208;9.182;2023-02-11T05:51:49;101643.38;;;1.13;79.63
12594;BME280;6362;50.208;9.182;2023-02-11T05:54:15;101646.63;;;1.10;79.51
12594;BME280;6362;50.208;9.182;2023-02-11T05:56:41;101639.56;;;1.06;79.72
12594;BME280;6362;50.208;9.182;2023-02-11T05:59:06;101647.94;;;1.03;79.70
12594;BME280;6362;50.208;9.182;2023-02-11T06:01:31;101652.91;;;1.00;79.88
12594;BME280;6362;50.208;9.182;2023-02-11T06:03:57;101647.66;;;0.99;79.63
12594;BME280;6362;50.208;9.182;2023-02-11T06:06:23;101648.56;;;0.99;79.95
12594;BME280;6362;50.208;9.182;2023-02-11T06:08:48;101645.91;;;0.98;80.22
12594;BME280;6362;50.208;9.182;2023-02-11T06:11:15;101643.44;;;0.99;79.98
12594;BME280;6362;50.208;9.182;2023-02-11T06:13:40;101639.19;;;1.00;80.14
12594;BME280;6362;50.208;9.182;2023-02-11T06:16:06;101642.53;;;0.99;80.08
12594;BME280;6362;50.208;9.182;2023-02-11T06:18:31;101643.34;;;0.98;80.54
12594;BME280;6362;50.208;9.182;2023-02-11T06:20:58;101651.91;;;0.98;80.19
12594;BME280;6362;50.208;9.182;2023-02-11T06:23:23;101653.59;;;0.98;80.22
12594;BME280;6362;50.208;9.182;2023-02-11T06:25:49;101652.00;;;1.00;80.21
12594;BME280;6362;50.208;9.182;2023-02-11T06:28:15;101652.72;;;0.97;80.31
12594;BME280;6362;50.208;9.182;2023-02-11T06:30:40;101660.41;;;0.97;79.72
12594;BME280;6362;50.208;9.182;2023-02-11T06:33:05;101657.13;;;1.00;79.72
12594;BME280;6362;50.208;9.182;2023-02-11T06:35:31;101658.81;;;0.99;79.87
12594;BME280;6362;50.208;9.182;2023-02-11T06:37:58;101654.47;;;0.98;79.77
12594;BME280;6362;50.208;9.182;2023-02-11T06:40:23;101655.28;;;0.97;79.75
12594;BME280;6362;50.208;9.182;2023-02-11T06:42:48;101647.50;;;0.96;80.21
12594;BME280;6362;50.208;9.182;2023-02-11T06:45:14;101651.09;;;0.99;79.65
12594;BME280;6362;50.208;9.182;2023-02-11T06:47:40;101650.88;;;0.95;79.70
12594;BME280;6362;50.208;9.182;2023-02-11T06:50:07;101646.50;;;0.94;80.27
12594;BME280;6362;50.208;9.182;2023-02-11T06:52:35;101649.06;;;0.94;80.08
12594;BME280;6362;50.208;9.182;2023-02-11T06:55:00;101648.38;;;0.96;80.12
12594;BME280;6362;50.208;9.182;2023-02-11T06:57:26;101653.50;;;0.96;80.12
12594;BME280;6362;50.208;9.182;2023-02-11T06:59:52;101656.88;;;0.95;80.57
12594;BME280;6362;50.208;9.182;2023-02-11T07:02:18;101649.44;;;1.00;80.61
12594;BME280;6362;50.208;9.182;2023-02-11T07:04:43;101648.81;;;1.04;80.51
12594;BME280;6362;50.208;9.182;2023-02-11T07:07:08;101646.47;;;1.07;80.48
12594;BME280;6362;50.208;9.182;2023-02-11T07:09:34;101651.09;;;1.44;82.75
12594;BME280;6362;50.208;9.182;2023-02-11T07:11:59;101645.97;;;1.58;82.74
12594;BME280;6362;50.208;9.182;2023-02-11T07:14:25;101650.97;;;1.72;81.71
12594;BME280;6362;50.208;9.182;2023-02-11T07:16:50;101653.78;;;1.91;80.44
12594;BME280;6362;50.208;9.182;2023-02-11T07:19:16;101654.97;;;2.13;78.33
12594;BME280;6362;50.208;9.182;2023-02-11T07:21:41;101653.28;;;2.29;79.41
12594;BME280;6362;50.208;9.182;2023-02-11T07:24:08;101654.72;;;2.24;78.20
12594;BME280;6362;50.208;9.182;2023-02-11T07:26:34;101656.50;;;2.25;77.44
12594;BME280;6362;50.208;9.182;2023-02-11T07:29:00;101656.91;;;2.17;77.26
12594;BME280;6362;50.208;9.182;2023-02-11T07:31:27;101664.16;;;2.09;77.41
12594;BME280;6362;50.208;9.182;2023-02-11T07:33:56;101657.97;;;2.05;77.65
12594;BME280;6362;50.208;9.182;2023-02-11T07:36:22;101667.34;;;2.05;77.30
12594;BME280;6362;50.208;9.182;2023-02-11T07:38:48;101668.50;;;2.10;77.31
12594;BME280;6362;50.208;9.182;2023-02-11T07:41:16;101664.97;;;2.08;77.06
12594;BME280;6362;50.208;9.182;2023-02-11T07:43:43;101663.03;;;2.04;76.57
12594;BME280;6362;50.208;9.182;2023-02-11T07:46:14;101668.97;;;2.03;76.84
12594;BME280;6362;50.208;9.182;2023-02-11T07:48:40;101662.59;;;2.11;76.62
12594;BME280;6362;50.208;9.182;2023-02-11T07:51:11;101670.59;;;2.17;76.88
12594;BME280;6362;50.208;9.182;2023-02-11T07:53:37;101677.28;;;2.30;76.17
12594;BME280;6362;50.208;9.182;2023-02-11T07:56:03;101680.34;;;2.39;76.10
12594;BME280;6362;50.208;9.182;2023-02-11T07:58:29;101687.56;;;2.46;75.51
12594;BME280;6362;50.208;9.182;2023-02-11T08:01:00;101699.84;;;2.52;75.58
12594;BME280;6362;50.208;9.182;2023-02-11T08:03:26;101696.72;;;2.57;75.08
12594;BME280;6362;50.208;9.182;2023-02-11T08:05:52;101701.38;;;2.64;75.35
12594;BME280;6362;50.208;9.182;2023-02-11T08:08:17;101711.91;;;2.69;75.31
12594;BME280;6362;50.208;9.182;2023-02-11T08:10:42;101704.69;;;2.78;74.68
12594;BME280;6362;50.208;9.182;2023-02-11T08:13:08;101707.88;;;2.90;74.32
12594;BME280;6362;50.208;9.182;2023-02-11T08:15:33;101705.94;;;3.03;74.56
12594;BME280;6362;50.208;9.182;2023-02-11T08:17:59;101707.53;;;3.17;73.46
12594;BME280;6362;50.208;9.182;2023-02-11T08:20:24;101698.53;;;3.25;73.36
12594;BME280;6362;50.208;9.182;2023-02-11T08:22:49;101708.41;;;3.34;72.14
12594;BME280;6362;50.208;9.182;2023-02-11T08:25:15;101712.34;;;3.61;71.60
12594;BME280;6362;50.208;9.182;2023-02-11T08:27:40;101716.75;;;3.82;70.81
12594;BME280;6362;50.208;9.182;2023-02-11T08:30:06;101707.69;;;4.08;69.95
12594;BME280;6362;50.208;9.182;2023-02-11T08:32:33;101715.13;;;4.19;68.33
12594;BME280;6362;50.208;9.182;2023-02-11T08:34:59;101715.03;;;4.36;68.22
12594;BME280;6362;50.208;9.182;2023-02-11T08:37:24;101712.19;;;4.49;67.82
12594;BME280;6362;50.208;9.182;2023-02-11T08:39:50;101718.59;;;4.57;66.70
12594;BME280;6362;50.208;9.182;2023-02-11T08:42:15;101726.44;;;4.60;66.78
12594;BME280;6362;50.208;9.182;2023-02-11T08:44:42;101723.25;;;4.66;66.26
12594;BME280;6362;50.208;9.182;2023-02-11T08:47:07;101728.00;;;4.57;66.56
12594;BME280;6362;50.208;9.182;2023-02-11T08:49:33;101720.50;;;4.61;66.77
12594;BME280;6362;50.208;9.182;2023-02-11T08:51:59;101727.19;;;4.58;66.44
12594;BME280;6362;50.208;9.182;2023-02-11T08:54:28;101729.97;;;4.62;66.25
12594;BME280;6362;50.208;9.182;2023-02-11T08:56:54;101721.16;;;4.57;67.18
12594;BME280;6362;50.208;9.182;2023-02-11T08:59:19;101729.22;;;4.45;66.98
12594;BME280;6362;50.208;9.182;2023-02-11T09:01:45;101733.22;;;4.39;66.76
12594;BME280;6362;50.208;9.182;2023-02-11T09:04:12;101740.13;;;4.40;66.90
12594;BME280;6362;50.208;9.182;2023-02-11T09:06:38;101737.47;;;4.20;68.01
12594;BME280;6362;50.208;9.182;2023-02-11T09:09:03;101738.06;;;4.15;68.32
12594;BME280;6362;50.208;9.182;2023-02-11T09:11:34;101735.00;;;4.22;68.56
12594;BME280;6362;50.208;9.182;2023-02-11T09:14:01;101738.06;;;4.15;68.90
12594;BME280;6362;50.208;9.182;2023-02-11T09:16:29;101734.50;;;4.11;68.83
12594;BME280;6362;50.208;9.182;2023-02-11T09:18:59;101737.66;;;4.06;69.16
12594;BME280;6362;50.208;9.182;2023-02-11T09:21:26;101730.28;;;4.13;69.33
12594;BME280;6362;50.208;9.182;2023-02-11T09:23:52;101718.84;;;4.26;68.41
12594;BME280;6362;50.208;9.182;2023-02-11T09:26:19;101726.28;;;4.20;68.11
12594;BME280;6362;50.208;9.182;2023-02-11T09:28:46;101723.28;;;4.11;68.43
12594;BME280;6362;50.208;9.182;2023-02-11T09:31:14;101731.09;;;4.12;69.08
12594;BME280;6362;50.208;9.182;2023-02-11T09:33:42;101736.75;;;4.23;68.46
12594;BME280;6362;50.208;9.182;2023-02-11T09:36:14;101733.66;;;4.30;68.61
12594;BME280;6362;50.208;9.182;2023-02-11T09:38:40;101747.56;;;4.34;68.68
12594;BME280;6362;50.208;9.182;2023-02-11T09:43:53;101745.88;;;4.34;67.74
12594;BME280;6362;50.208;9.182;2023-02-11T09:46:20;101749.97;;;4.31;68.23
12594;BME280;6362;50.208;9.182;2023-02-11T09:48:48;101742.91;;;4.27;68.72
12594;BME280;6362;50.208;9.182;2023-02-11T09:54:33;101738.25;;;4.00;68.94
12594;BME280;6362;50.208;9.182;2023-02-11T09:57:00;101743.59;;;3.87;70.60
12594;BME280;6362;50.208;9.182;2023-02-11T09:59:26;101744.16;;;3.81;70.37
12594;BME280;6362;50.208;9.182;2023-02-11T10:01:59;101751.06;;;3.82;70.81
12594;BME280;6362;50.208;9.182;2023-02-11T10:15:14;101751.69;;;3.94;70.76
12594;BME280;6362;50.208;9.182;2023-02-11T10:23:30;101752.56;;;4.31;70.14
12594;BME280;6362;50.208;9.182;2023-02-11T10:25:58;101745.19;;;4.38;69.60
12594;BME280;6362;50.208;9.182;2023-02-11T10:28:34;101741.34;;;4.48;69.82
12594;BME280;6362;50.208;9.182;2023-02-11T10:31:10;101740.81;;;4.55;69.40
12594;BME280;6362;50.208;9.182;2023-02-11T10:36:17;101744.34;;;4.57;69.04
12594;BME280;6362;50.208;9.182;2023-02-11T10:38:44;101749.91;;;4.66;69.01
12594;BME280;6362;50.208;9.182;2023-02-11T10:41:17;101748.34;;;4.70;68.62
12594;BME280;6362;50.208;9.182;2023-02-11T10:43:44;101754.19;;;4.66;68.39
12594;BME280;6362;50.208;9.182;2023-02-11T10:46:16;101756.75;;;4.66;68.96
12594;BME280;6362;50.208;9.182;2023-02-11T10:48:48;101754.59;;;4.75;68.68
12594;BME280;6362;50.208;9.182;2023-02-11T10:51:25;101755.75;;;4.62;68.92
12594;BME280;6362;50.208;9.182;2023-02-11T10:56:31;101762.31;;;4.56;69.03
12594;BME280;6362;50.208;9.182;2023-02-11T10:59:06;101743.97;;;4.67;68.71
12594;BME280;6362;50.208;9.182;2023-02-11T11:01:42;101735.03;;;4.79;68.55
12594;BME280;6362;50.208;9.182;2023-02-11T11:04:41;101739.69;;;4.87;67.80
12594;BME280;6362;50.208;9.182;2023-02-11T11:07:15;101739.63;;;4.86;68.20
12594;BME280;6362;50.208;9.182;2023-02-11T11:12:46;101746.22;;;4.79;68.18
12594;BME280;6362;50.208;9.182;2023-02-11T11:15:20;101741.94;;;4.80;68.15
12594;BME280;6362;50.208;9.182;2023-02-11T11:17:50;101742.59;;;4.75;68.44
12594;BME280;6362;50.208;9.182;2023-02-11T11:20:32;101729.91;;;4.80;68.40
12594;BME280;6362;50.208;9.182;2023-02-11T11:23:20;101732.91;;;4.89;68.33
12594;BME280;6362;50.208;9.182;2023-02-11T11:31:18;101724.91;;;5.02;68.61
12594;BME280;6362;50.208;9.182;2023-02-11T11:33:45;101718.91;;;5.03;68.25
12594;BME280;6362;50.208;9.182;2023-02-11T11:36:15;101724.75;;;4.99;68.04
12594;BME280;6362;50.208;9.182;2023-02-11T11:38:52;101726.66;;;5.03;68.79
12594;BME280;6362;50.208;9.182;2023-02-11T11:41:48;101727.31;;;5.19;67.70
12594;BME280;6362;50.208;9.182;2023-02-11T11:46:51;101718.72;;;4.99;67.78
12594;BME280;6362;50.208;9.182;2023-02-11T11:49:34;101723.66;;;5.14;68.04
12594;BME280;6362;50.208;9.182;2023-02-11T11:52:32;101724.91;;;5.02;68.91
12594;BME280;6362;50.208;9.182;2023-02-11T11:55:08;101726.72;;;5.05;68.38
12594;BME280;6362;50.208;9.182;2023-02-11T11:57:37;101726.28;;;4.94;68.83
12594;BME280;6362;50.208;9.182;2023-02-11T12:00:03;101720.16;;;5.12;68.50
12594;BME280;6362;50.208;9.182;2023-02-11T12:03:09;101712.31;;;5.10;68.60
12594;BME280;6362;50.208;9.182;2023-02-11T12:06:10;101718.78;;;5.20;67.98
12594;BME280;6362;50.208;9.182;2023-02-11T12:14:25;101719.75;;;5.02;68.28
12594;BME280;6362;50.208;9.182;2023-02-11T12:17:07;101731.41;;;5.14;68.51
12594;BME280;6362;50.208;9.182;2023-02-11T12:20:04;101730.72;;;5.18;68.81
12594;BME280;6362;50.208;9.182;2023-02-11T12:31:07;101720.66;;;5.24;69.25
12594;BME280;6362;50.208;9.182;2023-02-11T12:36:40;101713.50;;;5.38;68.69
12594;BME280;6362;50.208;9.182;2023-02-11T12:50:29;101709.22;;;5.38;69.43
12594;BME280;6362;50.208;9.182;2023-02-11T12:53:38;101699.91;;;5.42;69.22
12594;BME280;6362;50.208;9.182;2023-02-11T12:56:18;101695.63;;;5.42;69.28
12594;BME280;6362;50.208;9.182;2023-02-11T12:58:46;101696.09;;;5.53;69.67
12594;BME280;6362;50.208;9.182;2023-02-11T13:01:19;101698.72;;;5.54;69.29
12594;BME280;6362;50.208;9.182;2023-02-11T13:04:00;101701.44;;;5.57;69.13
12594;BME280;6362;50.208;9.182;2023-02-11T13:06:44;101684.50;;;5.64;69.53
12594;BME280;6362;50.208;9.182;2023-02-11T13:09:17;101694.63;;;5.60;69.71
12594;BME280;6362;50.208;9.182;2023-02-11T13:11:48;101684.50;;;5.64;69.79
12594;BME280;6362;50.208;9.182;2023-02-11T13:14:37;101673.31;;;5.64;69.43
12594;BME280;6362;50.208;9.182;2023-02-11T13:17:12;101674.75;;;5.57;70.26
12594;BME280;6362;50.208;9.182;2023-02-11T13:19:50;101680.75;;;5.56;69.88
12594;BME280;6362;50.208;9.182;2023-02-11T13:22:34;101685.50;;;5.47;70.23
12594;BME280;6362;50.208;9.182;2023-02-11T13:30:48;101685.81;;;5.54;70.59
12594;BME280;6362;50.208;9.182;2023-02-11T13:33:34;101690.03;;;5.52;70.56
12594;BME280;6362;50.208;9.182;2023-02-11T13:38:27;101691.88;;;5.34;71.29
12594;BME280;6362;50.208;9.182;2023-02-11T13:41:17;101686.97;;;5.40;71.36
12594;BME280;6362;50.208;9.182;2023-02-11T13:44:12;101692.88;;;5.38;71.47
12594;BME280;6362;50.208;9.182;2023-02-11T13:46:53;101689.03;;;5.28;72.00
12594;BME280;6362;50.208;9.182;2023-02-11T13:49:39;101692.50;;;5.28;71.85
12594;BME280;6362;50.208;9.182;2023-02-11T13:52:26;101689.56;;;5.21;72.27
12594;BME280;6362;50.208;9.182;2023-02-11T13:54:56;101687.34;;;5.28;72.17
12594;BME280;6362;50.208;9.182;2023-02-11T13:59:56;101684.34;;;5.39;72.54
12594;BME280;6362;50.208;9.182;2023-02-11T14:02:26;101691.25;;;5.40;72.31
12594;BME280;6362;50.208;9.182;2023-02-11T14:05:28;101699.19;;;5.44;72.19
12594;BME280;6362;50.208;9.182;2023-02-11T14:08:16;101694.13;;;5.47;72.20
12594;BME280;6362;50.208;9.182;2023-02-11T14:16:19;101689.53;;;5.40;72.22
12594;BME280;6362;50.208;9.182;2023-02-11T14:21:31;101691.16;;;5.38;72.29
12594;BME280;6362;50.208;9.182;2023-02-11T14:26:49;101693.13;;;5.44;72.21
12594;BME280;6362;50.208;9.182;2023-02-11T14:29:40;101703.63;;;5.48;71.93
12594;BME280;6362;50.208;9.182;2023-02-11T14:35:27;101693.41;;;5.50;71.87
12594;BME280;6362;50.208;9.182;2023-02-11T14:38:06;101707.97;;;5.49;72.00
12594;BME280;6362;50.208;9.182;2023-02-11T14:40:48;101704.34;;;5.44;71.89
12594;BME280;6362;50.208;9.182;2023-02-11T14:43:21;101709.75;;;5.50;72.12
12594;BME280;6362;50.208;9.182;2023-02-11T14:45:55;101712.34;;;5.50;71.79
12594;BME280;6362;50.208;9.182;2023-02-11T14:48:29;101714.72;;;5.46;72.28
12594;BME280;6362;50.208;9.182;2023-02-11T14:53:46;101713.06;;;5.48;72.47
12594;BME280;6362;50.208;9.182;2023-02-11T14:56:31;101721.59;;;5.45;72.72
12594;BME280;6362;50.208;9.182;2023-02-11T14:58:59;101725.16;;;5.49;72.45
12594;BME280;6362;50.208;9.182;2023-02-11T15:01:34;101720.19;;;5.53;72.43
12594;BME280;6362;50.208;9.182;2023-02-11T15:04:03;101720.88;;;5.49;72.23
12594;BME280;6362;50.208;9.182;2023-02-11T15:06:36;101723.44;;;5.49;72.82
12594;BME280;6362;50.208;9.182;2023-02-11T15:11:40;101730.22;;;5.46;72.86
12594;BME280;6362;50.208;9.182;2023-02-11T15:14:10;101729.44;;;5.48;72.78
12594;BME280;6362;50.208;9.182;2023-02-11T15:16:41;101732.09;;;5.50;72.99
12594;BME280;6362;50.208;9.182;2023-02-11T15:19:18;101734.69;;;5.50;72.45
12594;BME280;6362;50.208;9.182;2023-02-11T15:21:46;101735.38;;;5.46;72.51
12594;BME280;6362;50.208;9.182;2023-02-11T15:24:38;101734.41;;;5.44;73.33
12594;BME280;6362;50.208;9.182;2023-02-11T15:27:11;101740.38;;;5.43;73.19
12594;BME280;6362;50.208;9.182;2023-02-11T15:29:58;101742.84;;;5.40;73.21
12594;BME280;6362;50.208;9.182;2023-02-11T15:32:24;101751.47;;;5.40;73.30
12594;BME280;6362;50.208;9.182;2023-02-11T15:34:51;101748.00;;;5.40;73.38
12594;BME280;6362;50.208;9.182;2023-02-11T15:37:23;101742.75;;;5.38;73.34
12594;BME280;6362;50.208;9.182;2023-02-11T15:39:51;101744.34;;;5.35;73.85